createdAt,value
2023-04-08T00:01:43.946Z,2.80
2023-04-08T00:05:46.143Z,2.40
2023-04-08T00:09:47.870Z,2.50
2023-04-08T00:13:49.803Z,1.35
2023-04-08T00:17:51.672Z,1.92
2023-04-08T00:21:53.823Z,1.73
2023-04-08T00:25:55.500Z,1.67
2023-04-08T00:29:57.620Z,2.15
2023-04-08T00:33:59.387Z,2.37
2023-04-08T00:38:01.866Z,2.33
2023-04-08T00:42:03.706Z,2.20
2023-04-08T00:46:06.148Z,3.13
2023-04-08T00:50:10.960Z,2.42
2023-04-08T00:54:12.714Z,2.35
2023-04-08T00:58:15.638Z,2.13
2023-04-08T01:02:43.438Z,2.13
2023-04-08T01:07:01.408Z,2.25
2023-04-08T01:11:12.662Z,2.20
2023-04-08T01:15:14.854Z,2.38
2023-04-08T01:19:29.114Z,2.25
2023-04-08T01:23:44.393Z,2.30
2023-04-08T01:27:48.690Z,1.98
2023-04-08T01:31:52.030Z,2.20
2023-04-08T01:35:54.783Z,2.50
2023-04-08T01:39:57.855Z,2.30
2023-04-08T01:44:00.841Z,2.17
2023-04-08T01:48:03.893Z,2.80
2023-04-08T01:52:09.404Z,2.20
2023-04-08T01:56:13.549Z,2.60
2023-04-08T02:00:21.207Z,2.50
2023-04-08T02:04:23.002Z,2.40
2023-04-08T02:08:25.123Z,2.33
2023-04-08T02:12:28.354Z,2.00
2023-04-08T02:16:40.588Z,2.28
2023-04-08T02:20:50.461Z,3.17
2023-04-08T02:24:53.288Z,2.47
2023-04-08T02:28:57.050Z,2.53
2023-04-08T02:33:01.540Z,2.55
2023-04-08T02:37:03.684Z,2.30
2023-04-08T02:41:05.501Z,2.57
2023-04-08T02:45:07.911Z,3.10
2023-04-08T02:49:09.609Z,2.80
2023-04-08T02:53:12.144Z,2.40
2023-04-08T02:57:13.902Z,3.03
2023-04-08T03:01:15.847Z,3.80
2023-04-08T03:05:17.726Z,4.10
2023-04-08T03:09:19.365Z,3.75
2023-04-08T03:13:21.108Z,3.47
2023-04-08T03:17:22.926Z,3.75
2023-04-08T03:21:24.984Z,3.90
2023-04-08T03:25:26.856Z,4.13
2023-04-08T03:29:28.507Z,4.43
2023-04-08T03:33:30.567Z,4.80
2023-04-08T03:37:32.611Z,5.23
2023-04-08T03:41:34.279Z,5.03
2023-04-08T03:45:36.127Z,5.72
2023-04-08T03:49:37.875Z,4.45
2023-04-08T03:53:39.586Z,5.63
2023-04-08T03:57:41.340Z,5.57
2023-04-08T04:01:43.531Z,5.70
2023-04-08T04:09:47.608Z,6.00
2023-04-08T04:13:49.563Z,6.75
2023-04-08T04:17:51.385Z,6.67
2023-04-08T04:21:53.029Z,6.68
2023-04-08T04:25:54.814Z,9.02
2023-04-08T04:29:56.465Z,7.82
2023-04-08T04:33:58.112Z,9.38
2023-04-08T04:38:00.082Z,9.20
2023-04-08T04:42:01.847Z,6.83
2023-04-08T04:46:04.207Z,8.50
2023-04-08T04:50:06.946Z,8.57
2023-04-08T04:54:09.408Z,8.57
2023-04-08T04:58:11.187Z,9.43
2023-04-08T05:02:12.891Z,8.48
2023-04-08T05:06:14.638Z,8.80
2023-04-08T05:10:16.457Z,8.30
2023-04-08T05:14:18.196Z,8.55
2023-04-08T05:18:20.025Z,8.90
2023-04-08T05:22:21.824Z,9.13
2023-04-08T05:26:23.839Z,8.63
2023-04-08T05:30:25.674Z,9.07
2023-04-08T05:34:27.406Z,9.15
2023-04-08T05:38:29.086Z,8.15
2023-04-08T05:42:32.294Z,8.68
2023-04-08T05:46:34.092Z,8.73
2023-04-08T05:50:36.577Z,9.13
2023-04-08T05:54:38.286Z,8.95
2023-04-08T05:58:41.192Z,7.70
2023-04-08T06:02:43.194Z,8.25
2023-04-08T06:06:45.235Z,8.38
2023-04-08T06:10:50.901Z,7.85
2023-04-08T06:14:56.515Z,9.15
2023-04-08T06:18:58.212Z,9.10
2023-04-08T06:22:59.914Z,8.27
2023-04-08T06:27:02.002Z,8.45
2023-04-08T06:31:04.242Z,9.00
2023-04-08T06:39:09.744Z,9.15
2023-04-08T06:43:11.402Z,24.45
2023-04-08T06:47:16.773Z,12.32
2023-04-08T06:51:18.573Z,21.73
2023-04-08T06:55:20.999Z,12.07
2023-04-08T06:59:22.767Z,10.63
2023-04-08T07:03:24.610Z,8.52
2023-04-08T07:07:26.400Z,7.72
2023-04-08T07:11:28.191Z,7.75
2023-04-08T07:15:30.173Z,8.30
2023-04-08T07:19:32.416Z,8.75
2023-04-08T07:23:34.142Z,7.45
2023-04-08T07:27:36.138Z,7.65
2023-04-08T07:31:37.839Z,8.60
2023-04-08T07:35:39.877Z,8.57
2023-04-08T07:39:41.803Z,8.48
2023-04-08T07:43:43.621Z,17.27
2023-04-08T07:47:46.118Z,9.05
2023-04-08T07:51:47.818Z,8.82
2023-04-08T07:55:49.670Z,13.63
2023-04-08T07:59:52.152Z,8.40
2023-04-08T08:03:54.425Z,9.50
2023-04-08T08:07:56.384Z,11.02
2023-04-08T08:11:58.268Z,9.48
2023-04-08T08:16:00.578Z,10.35
2023-04-08T08:20:03.749Z,8.10
2023-04-08T08:24:05.921Z,7.45
2023-04-08T08:28:07.833Z,7.82
2023-04-08T08:32:10.746Z,7.47
2023-04-08T08:40:14.367Z,6.80
2023-04-08T08:44:16.416Z,7.63
2023-04-08T08:48:18.129Z,7.13
2023-04-08T08:52:20.233Z,7.35
2023-04-08T08:56:22.227Z,6.85
2023-04-08T09:00:37.464Z,7.82
2023-04-08T09:04:39.563Z,7.30
2023-04-08T09:08:41.577Z,6.63
2023-04-08T09:12:56.559Z,6.97
2023-04-08T09:16:58.313Z,7.30
2023-04-08T09:21:02.041Z,7.45
2023-04-08T09:25:23.331Z,7.45
2023-04-08T09:29:32.435Z,7.38
2023-04-08T09:33:36.473Z,7.72
2023-04-08T09:37:39.715Z,7.25
2023-04-08T09:41:43.381Z,7.95
2023-04-08T09:45:46.874Z,7.93
2023-04-08T09:49:54.069Z,6.90
2023-04-08T09:54:06.841Z,6.78
2023-04-08T09:58:19.841Z,7.18
2023-04-08T10:06:29.705Z,6.63
2023-04-08T10:10:31.926Z,6.88
2023-04-08T10:14:34.082Z,7.50
2023-04-08T10:18:36.639Z,6.80
2023-04-08T10:22:38.457Z,6.55
2023-04-08T10:26:43.786Z,6.65
2023-04-08T10:30:52.813Z,5.65
2023-04-08T10:34:54.536Z,5.03
2023-04-08T10:38:56.476Z,5.90
2023-04-08T10:42:59.574Z,5.17
2023-04-08T10:47:01.389Z,4.47
2023-04-08T10:51:04.363Z,5.38
2023-04-08T10:55:07.127Z,4.60
2023-04-08T10:59:11.249Z,4.80
2023-04-08T11:03:15.536Z,4.30
2023-04-08T11:07:20.890Z,5.03
2023-04-08T11:11:24.053Z,5.00
2023-04-08T11:15:25.939Z,5.55
2023-04-08T11:19:28.013Z,9.40
2023-04-08T11:23:29.711Z,5.43
2023-04-08T11:27:31.583Z,5.65
2023-04-08T11:31:34.072Z,4.95
2023-04-08T11:35:41.548Z,5.85
2023-04-08T11:39:57.733Z,7.38
2023-04-08T11:43:59.382Z,5.35
2023-04-08T11:48:02.951Z,7.95
2023-04-08T11:52:06.142Z,5.78
2023-04-08T11:56:21.898Z,7.13
2023-04-08T12:00:25.422Z,4.97
2023-04-08T12:04:28.178Z,5.53
2023-04-08T12:08:29.976Z,6.85
2023-04-08T12:12:31.720Z,5.63
2023-04-08T12:16:34.247Z,4.80
2023-04-08T12:20:36.218Z,4.55
2023-04-08T12:24:38.386Z,7.35
2023-04-08T12:28:40.268Z,5.75
2023-04-08T12:32:42.882Z,5.33
2023-04-08T12:36:46.427Z,5.72
2023-04-08T12:40:50.346Z,4.32
2023-04-08T12:44:52.070Z,4.40
2023-04-08T12:49:03.280Z,7.22
2023-04-08T12:53:07.126Z,4.25
2023-04-08T12:57:08.954Z,4.47
2023-04-08T13:01:12.700Z,5.25
2023-04-08T13:05:14.560Z,4.97
2023-04-08T13:09:16.289Z,6.05
2023-04-08T13:13:18.773Z,5.53
2023-04-08T13:21:22.217Z,11.80
2023-04-08T13:25:23.987Z,22.50
2023-04-08T13:29:25.688Z,9.30
2023-04-08T13:33:27.521Z,5.17
2023-04-08T13:37:30.477Z,4.40
2023-04-08T13:41:32.467Z,5.20
2023-04-08T13:45:34.579Z,7.88
2023-04-08T13:49:36.299Z,8.57
2023-04-08T13:53:38.011Z,4.47
2023-04-08T13:57:39.710Z,4.10
2023-04-08T14:01:41.583Z,4.78
2023-04-08T14:05:43.393Z,7.82
2023-04-08T14:09:45.025Z,4.90
2023-04-08T14:13:46.773Z,7.15
2023-04-08T14:17:49.927Z,6.03
2023-04-08T14:21:51.672Z,12.65
2023-04-08T14:25:53.370Z,5.53
2023-04-08T14:29:55.577Z,5.47
2023-04-08T14:33:57.342Z,5.93
2023-04-08T14:37:59.242Z,12.30
2023-04-08T14:42:02.036Z,10.60
2023-04-08T14:50:05.944Z,5.93
2023-04-08T14:54:07.858Z,7.65
2023-04-08T14:58:09.622Z,8.88
2023-04-08T15:02:11.576Z,7.43
2023-04-08T15:06:17.188Z,5.20
2023-04-08T15:10:18.826Z,6.05
2023-04-08T15:14:20.573Z,6.88
2023-04-08T15:18:22.243Z,13.50
2023-04-08T15:22:23.906Z,13.50
2023-04-08T15:26:25.978Z,7.53
2023-04-08T15:30:27.896Z,6.40
2023-04-08T15:34:29.605Z,5.93
2023-04-08T15:38:33.764Z,6.20
2023-04-08T15:42:36.273Z,5.18
2023-04-08T15:46:38.165Z,5.38
2023-04-08T15:50:40.360Z,5.17
2023-04-08T15:54:42.089Z,5.80
2023-04-08T15:58:45.004Z,5.15
2023-04-08T16:02:46.950Z,6.05
2023-04-08T16:06:48.901Z,5.93
2023-04-08T16:10:50.653Z,5.85
2023-04-08T16:14:52.411Z,5.88
2023-04-08T16:18:56.211Z,5.80
2023-04-08T16:22:58.772Z,15.13
2023-04-08T16:27:00.866Z,19.20
2023-04-08T16:31:04.078Z,7.60
2023-04-08T16:35:08.410Z,6.85
2023-04-08T16:39:10.126Z,7.43
2023-04-08T16:43:13.434Z,7.50
2023-04-08T16:47:17.894Z,7.72
2023-04-08T16:51:19.559Z,6.50
2023-04-08T16:55:21.318Z,5.45
2023-04-08T16:59:23.141Z,5.88
2023-04-08T17:03:26.486Z,5.60
2023-04-08T17:07:28.637Z,5.70
2023-04-08T17:11:30.487Z,6.18
2023-04-08T17:15:34.906Z,6.37
2023-04-08T17:19:37.482Z,6.32
2023-04-08T17:23:39.444Z,7.55
2023-04-08T17:27:41.827Z,8.30
2023-04-08T17:31:44.474Z,6.78
2023-04-08T17:35:46.613Z,8.18
2023-04-08T17:39:48.358Z,7.03
2023-04-08T17:43:50.351Z,7.85
2023-04-08T17:47:52.440Z,6.67
2023-04-08T17:51:54.185Z,7.70
2023-04-08T17:55:56.066Z,9.23
2023-04-08T17:59:57.769Z,6.45
2023-04-08T18:03:59.533Z,7.03
2023-04-08T18:08:01.460Z,6.43
2023-04-08T18:12:06.525Z,9.48
2023-04-08T18:16:20.630Z,5.88
2023-04-08T18:20:22.749Z,6.15
2023-04-08T18:24:24.507Z,6.18
2023-04-08T18:28:26.407Z,5.53
2023-04-08T18:32:28.133Z,4.97
2023-04-08T18:36:29.903Z,3.83
2023-04-08T18:40:31.643Z,3.80
2023-04-08T18:44:35.345Z,4.68
2023-04-08T18:48:37.031Z,4.18
2023-04-08T18:52:39.138Z,3.83
2023-04-08T18:56:41.214Z,4.47
2023-04-08T19:00:43.939Z,3.13
2023-04-08T19:04:45.833Z,3.63
2023-04-08T19:08:48.403Z,3.70
2023-04-08T19:12:50.926Z,4.07
2023-04-08T19:16:52.605Z,3.67
2023-04-08T19:20:54.305Z,3.53
2023-04-08T19:24:56.388Z,3.55
2023-04-08T19:28:58.166Z,3.42
2023-04-08T19:33:01.443Z,3.08
2023-04-08T19:37:03.161Z,2.97
2023-04-08T19:41:05.208Z,3.00
2023-04-08T19:45:08.896Z,2.83
2023-04-08T19:49:12.126Z,2.92
2023-04-08T19:53:16.073Z,2.80
2023-04-08T19:57:18.939Z,3.03
2023-04-08T20:01:21.751Z,3.10
2023-04-08T20:05:24.316Z,3.00
2023-04-08T20:09:26.118Z,2.92
2023-04-08T20:13:28.330Z,3.40
2023-04-08T20:17:30.183Z,3.80
2023-04-08T20:21:32.774Z,3.00
2023-04-08T20:25:34.529Z,3.00
2023-04-08T20:29:36.344Z,2.88
2023-04-08T20:33:43.703Z,3.30
2023-04-08T20:37:46.403Z,2.95
2023-04-08T20:41:48.154Z,3.28
2023-04-08T20:45:49.846Z,3.45
2023-04-08T20:49:51.632Z,3.75
2023-04-08T20:53:53.581Z,4.90
2023-04-08T20:57:55.455Z,4.32
2023-04-08T21:01:57.390Z,5.43
2023-04-08T21:05:59.197Z,4.00
2023-04-08T21:10:01.175Z,4.40
2023-04-08T21:14:03.213Z,4.00
2023-04-08T21:18:06.654Z,3.58
2023-04-08T21:22:08.409Z,3.38
2023-04-08T21:26:12.256Z,3.72
2023-04-08T21:30:14.124Z,3.22
2023-04-08T21:34:16.882Z,3.60
2023-04-08T21:42:23.366Z,3.33
2023-04-08T21:46:25.295Z,4.00
2023-04-08T21:50:27.152Z,3.87
2023-04-08T21:54:29.340Z,5.05
2023-04-08T21:58:31.379Z,3.92
2023-04-08T22:02:36.961Z,4.07
2023-04-08T22:06:38.905Z,4.15
2023-04-08T22:10:40.808Z,4.67
2023-04-08T22:14:42.482Z,4.32
2023-04-08T22:18:44.440Z,4.70
2023-04-08T22:22:46.112Z,4.95
2023-04-08T22:26:47.945Z,4.00
2023-04-08T22:30:49.794Z,4.38
2023-04-08T22:34:51.502Z,4.28
2023-04-08T22:38:53.695Z,5.88
2023-04-08T22:42:56.405Z,4.30
2023-04-08T22:46:58.154Z,3.63
2023-04-08T22:50:59.816Z,4.18
2023-04-08T22:55:01.686Z,4.55
2023-04-08T22:59:03.616Z,3.53
2023-04-08T23:03:05.355Z,2.72
2023-04-08T23:07:07.119Z,3.70
2023-04-08T23:11:08.876Z,3.80
2023-04-08T23:15:10.749Z,4.15
2023-04-08T23:19:12.404Z,3.95
2023-04-08T23:23:14.026Z,4.55
2023-04-08T23:27:15.905Z,3.92
2023-04-08T23:31:17.653Z,4.38
2023-04-08T23:35:19.571Z,3.72
2023-04-08T23:39:21.366Z,2.65
2023-04-08T23:43:23.076Z,4.28
2023-04-08T23:47:24.807Z,4.05
2023-04-08T23:51:27.955Z,4.03
2023-04-08T23:59:31.578Z,3.53
